Time;durP1;ratioP1;P1;durP2;ratioP2;P2;SDS_P1;SDS_P2;PMS_P1;PMS_P2;Temp;Humidity;BMP_temperature;BMP_pressure;BME280_temperature;BME280_humidity;BME280_pressure;Samples;Min_cycle;Max_cycle;Signal;HPM_P1;HPM_P2
2023/06/17 00:01:37;;;;;;;13.30;8.02;;;14.30;99.90;;;;;;6187828;23;20025;-87
2023/06/17 00:04:24;;;;;;;11.05;6.88;;;14.20;99.90;;;;;;6165107;23;20397;-87
2023/06/17 00:07:12;;;;;;;11.55;7.13;;;14.10;99.90;;;;;;6166761;23;20329;-88
2023/06/17 00:09:59;;;;;;;10.20;6.30;;;14.10;99.90;;;;;;6167527;23;20057;-87
2023/06/17 00:12:48;;;;;;;9.73;6.30;;;13.90;99.90;;;;;;6184608;23;20025;-87
2023/06/17 00:15:36;;;;;;;7.40;5.88;;;14.00;99.90;;;;;;6166251;23;20050;-87
2023/06/17 00:18:26;;;;;;;9.05;6.65;;;14.00;99.90;;;;;;6183904;23;20135;-88
2023/06/17 00:21:14;;;;;;;9.52;7.70;;;13.90;99.90;;;;;;6183074;23;20432;-86
2023/06/17 00:24:02;;;;;;;8.90;7.13;;;13.80;99.90;;;;;;6187420;23;20035;-87
2023/06/17 00:26:49;;;;;;;10.27;6.93;;;13.70;99.90;;;;;;6188577;23;20025;-87
2023/06/17 00:29:36;;;;;;;14.70;7.68;;;13.60;99.90;;;;;;6164012;23;20035;-86
2023/06/17 00:32:23;;;;;;;11.90;7.43;;;13.40;99.90;;;;;;6184333;23;20029;-87
2023/06/17 00:35:11;;;;;;;8.18;6.38;;;13.40;99.90;;;;;;6165788;23;20029;-87
2023/06/17 00:37:59;;;;;;;12.25;6.90;;;13.30;99.90;;;;;;6187270;23;20025;-87
2023/06/17 00:40:46;;;;;;;9.40;6.80;;;13.30;99.90;;;;;;6163918;23;20021;-86
2023/06/17 00:43:36;;;;;;;13.38;7.95;;;13.30;99.90;;;;;;6163067;23;20025;-87
2023/06/17 00:46:37;;;;;;;10.07;6.43;;;13.30;99.90;;;;;;6183736;23;20029;-86
2023/06/17 00:49:35;;;;;;;10.15;7.10;;;13.40;99.90;;;;;;6185350;23;20108;-87
2023/06/17 00:52:23;;;;;;;9.60;6.55;;;13.40;99.90;;;;;;6163951;23;20035;-87
2023/06/17 00:55:17;;;;;;;8.05;6.20;;;13.30;99.90;;;;;;6165565;23;20432;-87
2023/06/17 00:58:06;;;;;;;8.50;6.20;;;13.20;99.90;;;;;;6184985;23;20021;-87
2023/06/17 01:00:53;;;;;;;8.07;6.25;;;13.10;99.90;;;;;;6184368;23;20052;-87
2023/06/17 01:03:41;;;;;;;11.30;6.70;;;13.00;99.90;;;;;;6185836;23;20023;-87
2023/06/17 01:06:33;;;;;;;7.45;6.00;;;13.00;99.90;;;;;;6185761;23;20096;-87
2023/06/17 01:09:26;;;;;;;6.22;4.88;;;12.90;99.90;;;;;;6186447;23;20439;-86
2023/06/17 01:12:14;;;;;;;;;;;12.90;99.90;;;;;;6186380;23;20029;-87
2023/06/17 01:15:02;;;;;;;11.55;6.68;;;13.00;99.90;;;;;;6185685;23;19939;-87
2023/06/17 01:17:54;;;;;;;9.18;6.35;;;13.10;99.90;;;;;;6185442;23;20035;-86
2023/06/17 01:20:41;;;;;;;8.48;6.57;;;13.10;99.90;;;;;;6163591;23;20025;-87
2023/06/17 01:23:34;;;;;;;11.48;6.88;;;13.10;99.90;;;;;;6183580;23;20427;-85
2023/06/17 01:26:23;;;;;;;14.45;8.13;;;13.10;99.90;;;;;;6163796;23;20327;-87
2023/06/17 01:29:10;;;;;;;13.60;6.65;;;13.20;99.90;;;;;;6185991;23;20035;-86
2023/06/17 01:32:07;;;;;;;8.80;6.30;;;13.20;99.90;;;;;;6185318;23;20025;-86
2023/06/17 01:35:07;;;;;;;9.20;6.40;;;13.10;99.90;;;;;;6187386;23;20051;-86
2023/06/17 01:38:05;;;;;;;8.20;6.00;;;13.20;99.90;;;;;;6186363;23;20029;-86
2023/06/17 01:41:01;;;;;;;9.98;6.03;;;13.20;99.90;;;;;;6185529;23;20094;-86
2023/06/17 01:43:49;;;;;;;7.95;5.72;;;13.30;99.90;;;;;;6186386;23;20313;-86
2023/06/17 01:46:37;;;;;;;7.45;5.88;;;13.30;99.90;;;;;;6164857;23;20036;-86
2023/06/17 01:49:24;;;;;;;8.98;6.47;;;13.40;99.90;;;;;;6186261;23;20029;-87
2023/06/17 01:52:11;;;;;;;12.55;6.20;;;13.30;99.90;;;;;;6187512;23;20025;-87
2023/06/17 01:54:59;;;;;;;10.05;6.47;;;13.40;99.90;;;;;;6169349;23;20553;-85
2023/06/17 01:57:49;;;;;;;13.35;6.80;;;13.40;99.90;;;;;;6187263;23;20087;-86
2023/06/17 02:00:36;;;;;;;9.18;6.32;;;13.40;99.90;;;;;;6165212;23;20021;-87
2023/06/17 02:03:23;;;;;;;8.68;6.35;;;13.30;99.90;;;;;;6185446;23;20025;-87
2023/06/17 02:06:11;;;;;;;8.18;6.32;;;13.30;99.90;;;;;;6186063;23;20025;-88
2023/06/17 02:08:58;;;;;;;9.77;6.10;;;13.30;99.90;;;;;;6188990;23;20083;-86
2023/06/17 02:11:46;;;;;;;8.48;6.15;;;13.30;99.90;;;;;;6189294;23;20111;-88
2023/06/17 02:14:33;;;;;;;10.50;6.82;;;13.20;99.90;;;;;;6169458;23;20158;-87
2023/06/17 02:17:23;;;;;;;10.13;6.32;;;13.10;99.90;;;;;;6189792;23;20431;-88
2023/06/17 02:20:11;;;;;;;9.77;6.75;;;13.10;99.90;;;;;;6187461;23;20029;-86
2023/06/17 02:22:58;;;;;;;10.88;6.85;;;13.00;99.90;;;;;;6187400;23;20021;-87
2023/06/17 02:25:46;;;;;;;9.20;6.72;;;12.90;99.90;;;;;;6166550;23;20029;-85
2023/06/17 02:28:33;;;;;;;10.57;6.82;;;12.80;99.90;;;;;;6189218;23;20039;-86
2023/06/17 02:31:20;;;;;;;9.65;6.55;;;12.80;99.90;;;;;;6199642;23;20029;-84
2023/06/17 02:34:09;;;;;;;12.35;7.45;;;12.80;99.90;;;;;;6178469;23;20040;-86
2023/06/17 02:36:56;;;;;;;11.30;7.68;;;12.70;99.90;;;;;;6200502;23;20017;-86
2023/06/17 02:39:44;;;;;;;12.70;7.90;;;12.60;99.90;;;;;;6200458;23;20060;-86
2023/06/17 02:42:31;;;;;;;9.60;7.28;;;12.40;99.90;;;;;;6201885;23;20100;-86
2023/06/17 02:45:18;;;;;;;10.73;7.40;;;12.40;99.90;;;;;;6205226;23;20032;-84
2023/06/17 02:48:05;;;;;;;8.90;6.97;;;12.30;99.90;;;;;;6211250;23;20015;-85
2023/06/17 02:50:55;;;;;;;12.30;7.97;;;12.20;99.90;;;;;;6191058;23;20016;-85
2023/06/17 02:53:45;;;;;;;10.00;6.82;;;12.30;99.90;;;;;;6211579;23;20048;-85
2023/06/17 02:56:33;;;;;;;9.60;7.03;;;12.30;99.90;;;;;;6202358;23;20025;-87
2023/06/17 02:59:21;;;;;;;10.40;6.95;;;12.30;99.90;;;;;;6194332;23;20025;-86
2023/06/17 03:02:10;;;;;;;9.77;6.10;;;12.30;99.90;;;;;;6197241;23;20485;-87
2023/06/17 03:04:58;;;;;;;10.48;7.00;;;12.20;99.90;;;;;;6198970;23;20025;-86
2023/06/17 03:07:46;;;;;;;12.13;7.63;;;12.30;99.90;;;;;;6198443;23;20029;-87
2023/06/17 03:10:34;;;;;;;11.63;7.63;;;12.30;99.90;;;;;;6178748;23;20107;-86
2023/06/17 03:13:21;;;;;;;10.15;7.97;;;12.30;99.90;;;;;;6201786;23;20043;-86
2023/06/17 03:16:08;;;;;;;12.13;8.07;;;12.30;99.90;;;;;;6186386;23;20036;-85
2023/06/17 03:18:58;;;;;;;12.25;7.78;;;12.20;99.90;;;;;;6179883;23;20480;-86
2023/06/17 03:21:49;;;;;;;10.13;7.25;;;12.20;99.90;;;;;;6190216;23;20029;-86
2023/06/17 03:24:37;;;;;;;11.57;7.60;;;12.20;99.90;;;;;;6187831;23;20025;-86
2023/06/17 03:27:27;;;;;;;11.88;7.20;;;12.20;99.90;;;;;;6188450;23;20061;-87
2023/06/17 03:30:14;;;;;;;15.68;7.75;;;12.20;99.90;;;;;;6188586;23;20037;-86
2023/06/17 03:33:01;;;;;;;10.18;7.63;;;12.30;99.90;;;;;;6169091;23;20040;-87
2023/06/17 03:35:52;;;;;;;11.10;8.23;;;12.40;99.90;;;;;;6188471;23;20029;-87
2023/06/17 03:38:39;;;;;;;10.38;7.65;;;12.40;99.90;;;;;;6192661;23;20033;-87
2023/06/17 03:41:26;;;;;;;14.77;8.05;;;12.40;99.90;;;;;;6189983;23;20029;-87
2023/06/17 03:44:14;;;;;;;11.13;7.57;;;12.30;99.90;;;;;;6185780;23;20079;-87
2023/06/17 03:47:03;;;;;;;10.50;7.45;;;12.20;99.90;;;;;;6163864;23;20025;-87
2023/06/17 03:49:50;;;;;;;13.30;8.15;;;12.20;99.90;;;;;;6186852;23;20060;-85
2023/06/17 03:52:38;;;;;;;11.95;8.25;;;12.30;99.90;;;;;;6167690;23;20021;-86
2023/06/17 03:55:25;;;;;;;13.25;7.57;;;12.30;99.90;;;;;;6184701;23;20029;-87
2023/06/17 03:58:14;;;;;;;11.32;7.38;;;12.40;99.90;;;;;;6186976;23;20031;-86
2023/06/17 04:08:13;;;;;;;13.60;7.22;;;12.70;99.90;;;;;;6213853;23;20020;-86
2023/06/17 04:11:05;;;;;;;11.25;7.15;;;12.80;99.90;;;;;;6193579;23;20079;-86
2023/06/17 04:13:53;;;;;;;10.38;7.43;;;12.90;99.90;;;;;;6217515;23;20021;-88
2023/06/17 04:16:41;;;;;;;10.00;7.13;;;13.00;99.90;;;;;;6201971;23;20021;-88
2023/06/17 04:19:29;;;;;;;10.88;7.47;;;13.20;99.90;;;;;;6214287;23;20025;-87
2023/06/17 04:22:16;;;;;;;9.75;7.55;;;13.40;99.90;;;;;;6216929;23;20038;-87
2023/06/17 04:25:04;;;;;;;10.88;7.40;;;13.60;99.90;;;;;;6195368;23;20025;-87
2023/06/17 04:27:53;;;;;;;11.30;7.45;;;13.60;99.90;;;;;;6212545;23;20080;-84
2023/06/17 04:30:45;;;;;;;11.25;6.95;;;13.70;99.90;;;;;;6191044;23;20039;-86
2023/06/17 04:33:38;;;;;;;10.77;7.00;;;13.70;99.90;;;;;;6193683;23;20036;-86
2023/06/17 04:36:25;;;;;;;11.10;6.80;;;13.80;99.90;;;;;;6193416;23;20036;-86
2023/06/17 04:39:13;;;;;;;10.20;7.00;;;13.80;99.90;;;;;;6215827;23;20052;-86
2023/06/17 04:42:02;;;;;;;9.27;6.65;;;13.90;99.90;;;;;;6192932;23;20091;-86
2023/06/17 04:44:52;;;;;;;13.13;7.72;;;13.90;99.90;;;;;;6193073;23;20332;-85
2023/06/17 04:47:42;;;;;;;17.67;6.90;;;13.90;99.90;;;;;;6192322;23;20032;-85
2023/06/17 04:50:29;;;;;;;11.45;7.63;;;13.90;99.90;;;;;;6215542;23;20025;-86
2023/06/17 04:53:18;;;;;;;9.57;7.07;;;14.00;99.90;;;;;;6194579;23;20032;-86
2023/06/17 04:56:08;;;;;;;11.13;7.13;;;14.10;99.90;;;;;;6215875;23;20375;-86
2023/06/17 04:58:55;;;;;;;10.18;7.60;;;14.10;99.90;;;;;;6192978;23;20439;-86
2023/06/17 05:01:42;;;;;;;12.40;6.80;;;14.10;99.90;;;;;;6214751;23;20103;-85
2023/06/17 05:04:30;;;;;;;9.90;7.18;;;14.20;99.90;;;;;;6215524;23;20020;-85
2023/06/17 05:07:17;;;;;;;13.40;7.78;;;14.30;99.90;;;;;;6163562;23;1223794;-85
2023/06/17 05:10:05;;;;;;;13.25;7.18;;;14.40;99.90;;;;;;6194283;23;20035;-86
2023/06/17 05:12:52;;;;;;;11.60;7.50;;;14.40;99.90;;;;;;6215962;23;20146;-86
2023/06/17 05:15:39;;;;;;;10.95;8.13;;;14.40;99.90;;;;;;6216730;23;20092;-86
2023/06/17 05:18:27;;;;;;;10.30;7.35;;;14.50;99.90;;;;;;6215316;23;20412;-86
2023/06/17 05:21:20;;;;;;;13.57;7.60;;;14.60;99.90;;;;;;6216621;23;20032;-86
2023/06/17 05:24:07;;;;;;;12.38;7.13;;;14.70;99.90;;;;;;6213515;23;20031;-85
2023/06/17 05:26:55;;;;;;;11.45;7.60;;;14.80;99.90;;;;;;6215387;23;20031;-85
2023/06/17 05:35:04;;;;;;;15.27;7.35;;;15.00;99.90;;;;;;6176641;23;20349;-85
2023/06/17 05:37:51;;;;;;;12.88;7.80;;;15.10;99.90;;;;;;6158835;23;20029;-85
2023/06/17 05:40:38;;;;;;;12.10;7.85;;;15.20;99.90;;;;;;6137806;23;20025;-85
2023/06/17 05:43:28;;;;;;;12.25;7.55;;;15.30;99.90;;;;;;6156560;23;20045;-85
2023/06/17 05:46:16;;;;;;;12.40;7.50;;;15.50;99.90;;;;;;6135093;23;20036;-88
2023/06/17 05:49:03;;;;;;;13.40;7.45;;;15.70;99.90;;;;;;6157678;23;20085;-85
2023/06/17 05:51:50;;;;;;;11.23;7.10;;;15.90;99.90;;;;;;6159035;23;20333;-90
2023/06/17 05:54:38;;;;;;;14.48;7.93;;;16.00;99.90;;;;;;6162186;23;20029;-87
2023/06/17 05:57:26;;;;;;;10.05;6.80;;;16.20;99.90;;;;;;6142339;23;20089;-89
2023/06/17 06:00:14;;;;;;;8.85;6.63;;;16.30;99.90;;;;;;6159402;23;20104;-89
2023/06/17 06:03:02;;;;;;;13.82;7.47;;;16.50;99.90;;;;;;6136111;23;20259;-91
2023/06/17 06:10:20;;;;;;;11.65;6.70;;;17.00;77.90;;;;;;6165741;23;20013;-90
2023/06/17 06:13:08;;;;;;;12.00;6.95;;;17.40;51.60;;;;;;6158994;23;20021;-89
2023/06/17 06:15:56;;;;;;;9.95;6.40;;;17.60;41.50;;;;;;6161635;23;20026;-92
2023/06/17 06:18:43;;;;;;;10.93;6.55;;;17.90;36.70;;;;;;6139774;23;20092;-90
2023/06/17 06:21:31;;;;;;;15.15;6.93;;;18.00;24.60;;;;;;6137759;23;20022;-89
2023/06/17 06:24:19;;;;;;;14.70;6.50;;;18.10;16.70;;;;;;6141868;23;20077;-91
2023/06/17 06:27:07;;;;;;;10.85;6.72;;;18.30;14.90;;;;;;6144261;23;20025;-89
2023/06/17 06:29:54;;;;;;;11.30;6.13;;;18.50;12.90;;;;;;6138184;23;20040;-90
2023/06/17 06:32:44;;;;;;;8.65;5.88;;;18.60;16.70;;;;;;6138826;23;20318;-90
2023/06/17 06:35:34;;;;;;;11.35;6.10;;;18.70;6.50;;;;;;6161062;23;20040;-88
2023/06/17 06:38:22;;;;;;;11.18;6.07;;;18.90;10.50;;;;;;6145963;23;20104;-89
2023/06/17 06:41:10;;;;;;;11.38;5.78;;;19.10;4.30;;;;;;6173648;23;20305;-88
2023/06/17 06:43:57;;;;;;;10.82;6.10;;;19.30;6.80;;;;;;6193873;23;20731;-90
2023/06/17 06:46:45;;;;;;;10.10;5.93;;;19.40;4.70;;;;;;6194974;23;20027;-86
2023/06/17 06:49:33;;;;;;;10.68;5.68;;;19.60;5.50;;;;;;6193384;23;20068;-87
2023/06/17 06:52:29;;;;;;;15.05;6.38;;;19.70;1.00;;;;;;6177154;23;20308;-90
2023/06/17 06:55:16;;;;;;;8.73;5.55;;;19.90;2.50;;;;;;6203197;23;20104;-91
2023/06/17 06:58:04;;;;;;;8.35;5.80;;;20.30;9.60;;;;;;6174312;23;20113;-92
2023/06/17 07:00:51;;;;;;;9.73;6.20;;;20.40;1.00;;;;;;6190119;23;20157;-89
2023/06/17 07:03:39;;;;;;;9.65;5.55;;;20.70;1.00;;;;;;6191230;23;20079;-90
2023/06/17 07:06:26;;;;;;;9.30;5.70;;;21.00;1.00;;;;;;6188242;23;20025;-91
2023/06/17 07:09:15;;;;;;;9.85;5.80;;;21.20;8.70;;;;;;6200381;23;20388;-87
2023/06/17 07:12:02;;;;;;;9.15;5.65;;;21.40;1.00;;;;;;6196865;23;20025;-87
2023/06/17 07:18:57;;;;;;;7.05;5.50;;;21.70;1.00;;;;;;6192946;23;20045;-88
2023/06/17 07:21:48;;;;;;;7.18;5.07;;;21.70;8.20;;;;;;6194586;23;20025;-87
2023/06/17 07:24:39;;;;;;;10.07;5.50;;;22.10;1.00;;;;;;6186411;23;20024;-85
2023/06/17 07:27:26;;;;;;;9.82;5.30;;;22.60;1.00;;;;;;6208101;23;20025;-83
2023/06/17 07:30:14;;;;;;;6.93;5.15;;;23.00;1.00;;;;;;6185893;23;20025;-82
2023/06/17 07:33:03;;;;;;;6.45;4.90;;;23.20;1.00;;;;;;6182622;23;20031;-83
2023/06/17 07:35:51;;;;;;;8.82;5.10;;;23.60;1.50;;;;;;6190841;23;20039;-83
2023/06/17 07:38:38;;;;;;;8.55;5.22;;;23.80;1.00;;;;;;6191624;23;20070;-88
2023/06/17 07:41:26;;;;;;;10.88;4.93;;;24.00;4.70;;;;;;6192868;23;20400;-85
2023/06/17 07:44:13;;;;;;;8.32;4.93;;;23.60;1.00;;;;;;6167640;23;20021;-91
2023/06/17 07:47:02;;;;;;;17.05;5.70;;;23.40;1.00;;;;;;6195822;23;20024;-85
2023/06/17 07:49:49;;;;;;;8.77;4.97;;;23.60;1.00;;;;;;6188070;23;20029;-87
2023/06/17 13:40:20;;;;;;;4.93;3.45;;;39.30;99.90;;;;;;5110622;27;20125;-86
2023/06/17 13:43:08;;;;;;;3.17;2.88;;;38.50;99.90;;;;;;5102378;28;20048;-86
2023/06/17 13:45:56;;;;;;;3.22;2.88;;;38.30;99.90;;;;;;5107763;28;20051;-87
2023/06/17 13:48:44;;;;;;;3.97;3.10;;;37.70;99.90;;;;;;5101485;28;20047;-87
2023/06/17 13:51:32;;;;;;;3.92;3.00;;;36.70;99.90;;;;;;5109772;28;20469;-85
2023/06/17 13:54:20;;;;;;;4.80;3.42;;;35.20;99.90;;;;;;5108231;28;20365;-86
2023/06/17 13:57:08;;;;;;;3.55;3.25;;;33.90;99.90;;;;;;5084184;28;20383;-85
2023/06/17 13:59:55;;;;;;;6.20;3.38;;;32.90;99.90;;;;;;5084532;28;20051;-86
2023/06/17 14:02:45;;;;;;;4.82;3.72;;;32.40;99.90;;;;;;5089541;28;20040;-85
2023/06/17 14:05:32;;;;;;;5.65;3.33;;;31.90;99.90;;;;;;5106495;28;20040;-87
2023/06/17 14:08:20;;;;;;;4.95;3.40;;;31.70;99.90;;;;;;5087901;28;20059;-88
2023/06/17 14:11:12;;;;;;;4.90;3.33;;;33.20;99.90;;;;;;5109485;28;20062;-88
2023/06/17 14:14:02;;;;;;;5.68;3.40;;;34.20;99.90;;;;;;5092980;28;20044;-85
2023/06/17 14:16:52;;;;;;;5.85;3.45;;;33.40;99.90;;;;;;5090913;28;20040;-85
2023/06/17 14:19:39;;;;;;;4.03;3.33;;;33.40;99.90;;;;;;5108466;28;20114;-86
2023/06/17 14:22:26;;;;;;;4.70;3.55;;;32.40;99.90;;;;;;5102693;28;20352;-85
2023/06/17 14:25:15;;;;;;;5.82;3.30;;;33.00;99.90;;;;;;5107556;28;20036;-85
2023/06/17 14:28:02;;;;;;;4.47;3.35;;;33.90;99.90;;;;;;5100136;28;20717;-86
2023/06/17 14:30:50;;;;;;;7.75;3.72;;;34.00;99.90;;;;;;5105966;28;20117;-85
2023/06/17 14:33:38;;;;;;;4.05;3.47;;;33.80;99.90;;;;;;5109196;28;20051;-86
2023/06/17 14:36:28;;;;;;;5.00;3.60;;;34.00;99.90;;;;;;5086867;28;20059;-84
2023/06/17 14:39:15;;;;;;;4.10;3.05;;;33.80;99.90;;;;;;5104956;28;20035;-86
2023/06/17 14:42:05;;;;;;;6.55;3.83;;;33.90;99.90;;;;;;5102183;28;20048;-84
2023/06/17 14:44:55;;;;;;;6.82;3.33;;;33.90;99.90;;;;;;5110271;28;20044;-88
2023/06/17 14:47:43;;;;;;;5.53;3.78;;;33.90;99.90;;;;;;5104345;28;20139;-85
2023/06/17 14:50:30;;;;;;;3.78;3.45;;;33.80;99.90;;;;;;5098763;28;20055;-85
2023/06/17 14:53:37;;;;;;;4.18;3.63;;;33.60;99.90;;;;;;5089190;28;20362;-84
2023/06/17 14:56:32;;;;;;;5.95;3.60;;;34.20;99.90;;;;;;5090883;28;20117;-83
2023/06/17 14:59:19;;;;;;;10.40;4.15;;;34.50;99.90;;;;;;5089098;28;20355;-87
2023/06/17 15:02:14;;;;;;;4.22;3.47;;;34.60;99.90;;;;;;5091457;28;20047;-81
2023/06/17 15:05:02;;;;;;;9.35;3.92;;;34.40;99.90;;;;;;5091235;28;20041;-84
2023/06/17 15:07:49;;;;;;;32.10;5.35;;;34.00;99.90;;;;;;5094055;28;20059;-91
2023/06/17 15:10:39;;;;;;;4.65;3.67;;;34.20;99.90;;;;;;5096462;28;20048;-85
2023/06/17 15:13:26;;;;;;;6.80;4.07;;;34.50;99.90;;;;;;5082401;28;20045;-87
2023/06/17 15:16:15;;;;;;;4.47;3.55;;;34.40;99.90;;;;;;5092228;28;20075;-87
2023/06/17 15:19:07;;;;;;;3.60;3.30;;;34.70;99.90;;;;;;5098524;28;20032;-86
2023/06/17 15:21:54;;;;;;;3.78;3.30;;;34.50;99.90;;;;;;5091234;28;20050;-84
2023/06/17 15:24:42;;;;;;;6.35;3.90;;;33.60;99.90;;;;;;5092689;28;20122;-84
2023/06/17 15:27:29;;;;;;;5.43;3.50;;;33.50;99.90;;;;;;5093611;28;20063;-83
2023/06/17 15:30:19;;;;;;;5.22;3.53;;;33.80;99.90;;;;;;5084244;28;20048;-87
2023/06/17 15:33:07;;;;;;;4.15;3.75;;;34.10;99.90;;;;;;5071232;28;20181;-90
2023/06/17 15:35:56;;;;;;;6.05;4.15;;;34.70;99.90;;;;;;5087076;28;20117;-85
2023/06/17 15:38:43;;;;;;;5.38;3.90;;;34.90;99.90;;;;;;5089146;28;20063;-83
2023/06/17 15:41:30;;;;;;;6.30;3.90;;;34.80;99.90;;;;;;5091333;28;20040;-85
2023/06/17 15:44:22;;;;;;;5.13;3.83;;;34.60;99.90;;;;;;5094055;28;20048;-85
2023/06/17 15:47:09;;;;;;;5.40;3.92;;;34.60;99.90;;;;;;5094645;28;20048;-86
2023/06/17 15:49:57;;;;;;;7.10;4.03;;;34.30;99.90;;;;;;5094384;28;20056;-86
2023/06/17 15:52:44;;;;;;;5.40;4.15;;;33.40;99.90;;;;;;5094466;28;20048;-88
2023/06/17 15:55:33;;;;;;;9.75;4.45;;;32.50;99.90;;;;;;5091862;28;20062;-87
2023/06/17 15:58:20;;;;;;;6.03;4.10;;;32.70;99.90;;;;;;5095258;28;20477;-88
2023/06/17 16:01:07;;;;;;;6.18;4.53;;;32.50;99.90;;;;;;5089622;28;20133;-88
2023/06/17 16:03:56;;;;;;;7.60;4.05;;;32.20;99.90;;;;;;5075332;28;20044;-85
2023/06/17 16:06:46;;;;;;;6.32;4.47;;;31.80;99.90;;;;;;5100847;28;20040;-86
2023/06/17 16:09:36;;;;;;;9.60;4.50;;;31.50;99.90;;;;;;5080660;28;20039;-87
2023/06/17 16:15:15;;;;;;;5.00;4.45;;;30.70;99.90;;;;;;5931823;22;20081;-91
2023/06/17 16:19:04;;;;;;;4.90;4.20;;;30.20;99.90;;;;;;5060943;28;20059;-94
2023/06/17 16:22:11;;;;;;;;;;;;;;;;;;;;;
2023/06/17 16:25:08;;;;;;;7.25;4.85;;;29.90;99.90;;;;;;5035534;28;20112;-93
2023/06/17 16:28:08;;;;;;;;;;;;;;;;;;;;;
2023/06/17 16:31:29;;;;;;;11.63;5.45;;;29.00;99.90;;;;;;4970128;28;20050;-93
2023/06/17 16:34:26;;;;;;;8.40;5.03;;;28.50;99.90;;;;;;4964937;28;20093;-91
2023/06/17 16:38:28;;;;;;;6.47;4.90;;;28.10;99.90;;;;;;4983167;28;20031;-91
2023/06/17 16:42:16;;;;;;;;;;;;;;;;;;;;;
2023/06/17 16:45:18;;;;;;;9.82;5.45;;;27.60;99.90;;;;;;5043806;28;20091;-92
2023/06/17 16:48:52;;;;;;;;;;;;;;;;;;;;;
2023/06/17 16:56:38;;;;;;;12.75;5.53;;;26.90;99.90;;;;;;5046424;28;20041;-92
2023/06/17 16:59:32;;;;;;;11.20;5.13;;;26.60;99.90;;;;;;5044021;28;20049;-91
2023/06/17 17:02:22;;;;;;;8.50;5.78;;;26.30;99.90;;;;;;5031352;28;20455;-89
2023/06/17 17:05:39;;;;;;;8.10;5.57;;;26.00;99.90;;;;;;5045641;28;20045;-89
2023/06/17 17:08:38;;;;;;;7.00;5.43;;;25.80;99.90;;;;;;5053510;28;20040;-91
2023/06/17 17:11:34;;;;;;;7.82;5.38;;;25.70;99.90;;;;;;5041818;28;20080;-92
2023/06/17 17:14:45;;;;;;;;;;;;;;;;;;;;;
2023/06/17 17:18:28;;;;;;;;;;;25.60;99.90;;;;;;5067565;28;20063;-92
2023/06/17 17:22:04;;;;;;;10.50;5.57;;;25.40;99.90;;;;;;5015628;28;19919;-91
2023/06/17 17:24:52;;;;;;;10.63;5.93;;;25.20;99.90;;;;;;5070562;28;20048;-89
2023/06/17 17:27:41;;;;;;;7.50;5.65;;;25.00;99.90;;;;;;5056340;28;20048;-88
2023/06/17 17:30:29;;;;;;;6.80;6.03;;;24.80;99.90;;;;;;5063838;28;20165;-89
2023/06/17 17:33:19;;;;;;;10.63;5.57;;;24.80;99.90;;;;;;5066864;28;20151;-89
2023/06/17 17:36:11;;;;;;;6.55;5.10;;;24.70;99.90;;;;;;5064339;28;20048;-91
2023/06/17 17:38:59;;;;;;;7.20;5.63;;;24.70;99.90;;;;;;5050998;28;20044;-91
2023/06/17 17:41:48;;;;;;;8.65;5.55;;;24.60;99.90;;;;;;5065415;28;20446;-91
2023/06/17 17:44:35;;;;;;;7.07;5.50;;;24.60;99.90;;;;;;5070986;28;20428;-92
2023/06/17 17:47:23;;;;;;;10.13;5.53;;;24.50;99.90;;;;;;5050464;28;20040;-90
2023/06/17 17:50:12;;;;;;;9.32;5.43;;;24.40;99.90;;;;;;5049607;28;20465;-93
2023/06/17 17:52:59;;;;;;;7.32;6.47;;;24.40;99.90;;;;;;5072636;28;20067;-90
2023/06/17 17:55:51;;;;;;;8.10;5.55;;;24.40;99.90;;;;;;5065688;28;20094;-89
2023/06/17 17:58:39;;;;;;;10.35;5.68;;;24.40;99.90;;;;;;5073064;28;20048;-91
2023/06/17 18:01:26;;;;;;;7.05;5.07;;;24.30;99.90;;;;;;5059157;28;20052;-91
2023/06/17 18:04:16;;;;;;;10.07;5.60;;;24.30;99.90;;;;;;5059190;28;20202;-91
2023/06/17 18:07:03;;;;;;;7.93;6.05;;;24.20;99.90;;;;;;5055948;28;20043;-90
2023/06/17 18:09:51;;;;;;;8.98;5.63;;;24.10;99.90;;;;;;5056979;28;20049;-92
2023/06/17 18:12:55;;;;;;;7.28;5.85;;;24.00;99.90;;;;;;5070188;28;20063;-93
2023/06/17 18:15:55;;;;;;;10.05;5.57;;;23.80;99.90;;;;;;5080167;28;20045;-93
2023/06/17 18:18:48;;;;;;;8.50;5.70;;;23.70;99.90;;;;;;5071020;28;20056;-93
2023/06/17 18:21:37;;;;;;;7.40;5.72;;;23.60;99.90;;;;;;5053933;28;20103;-93
2023/06/17 18:24:37;;;;;;;9.68;5.95;;;23.40;99.90;;;;;;5046057;28;20041;-93
2023/06/17 18:27:24;;;;;;;8.75;5.53;;;23.20;99.90;;;;;;5061992;28;20034;-90
2023/06/17 18:31:01;;;;;;;;;;;;;;;;;;;;;
2023/06/17 18:34:17;;;;;;;7.25;5.75;;;22.90;99.90;;;;;;5056203;28;20056;-93
2023/06/17 18:37:20;;;;;;;;;;;;;;;;;;;;;
2023/06/17 18:40:19;;;;;;;7.93;6.07;;;22.60;96.80;;;;;;5043623;28;20046;-92
2023/06/17 18:43:20;;;;;;;6.82;5.68;;;22.40;99.90;;;;;;5046303;28;20051;-94
2023/06/17 18:46:10;;;;;;;8.75;6.18;;;22.30;99.90;;;;;;5056442;28;20033;-96
2023/06/17 18:53:24;;;;;;;8.45;5.78;;;22.10;99.90;;;;;;4908590;29;20111;-92
2023/06/17 19:00:35;;;;;;;;;;;;;;;;;;;;;
2023/06/17 19:04:47;;;;;;;9.50;6.90;;;21.40;99.90;;;;;;4917089;29;20072;-91
2023/06/17 19:07:50;;;;;;;12.70;5.65;;;21.20;99.90;;;;;;4919376;29;20064;-92
2023/06/17 19:11:26;;;;;;;11.20;6.70;;;20.90;99.90;;;;;;4920055;29;20052;-93
2023/06/17 19:23:15;;;;;;;8.25;6.00;;;20.20;99.90;;;;;;4899857;29;20047;-94
2023/06/17 19:43:55;;;;;;;14.52;7.70;;;19.10;99.90;;;;;;4872087;29;20033;-92
2023/06/17 19:47:39;;;;;;;10.57;7.45;;;19.00;99.90;;;;;;4896354;29;20059;-92
2023/06/17 20:47:09;;;;;;;;;;;;;;;;;;;;;
2023/06/17 20:50:42;;;;;;;13.73;10.32;;;17.40;99.90;;;;;;5072272;28;20068;-93
2023/06/17 20:54:03;;;;;;;14.50;9.25;;;17.30;99.50;;;;;;5060164;28;20052;-93
2023/06/17 20:57:11;;;;;;;12.05;9.30;;;17.20;95.10;;;;;;5054604;28;20048;-94
2023/06/17 21:04:00;;;;;;;13.55;8.23;;;17.10;99.90;;;;;;5069309;28;20442;-93
2023/06/17 21:07:30;;;;;;;12.13;7.55;;;17.00;83.00;;;;;;5062191;28;20128;-93
2023/06/17 21:10:44;;;;;;;15.18;8.75;;;17.00;99.90;;;;;;5060896;28;20045;-92
